Time;durP1;ratioP1;P1;durP2;ratioP2;P2;SDS_P1;SDS_P2;PMS_P1;PMS_P2;Temp;Humidity;BMP_temperature;BMP_pressure;BME280_temperature;BME280_humidity;BME280_pressure;Samples;Min_cycle;Max_cycle;Signal;HPM_P1;HPM_P2
2021/07/25 00:02:12;;;;;;;12.00;10.90;;;;;;;22.49;94.87;95797.44;4987071;28;20177;-60
2021/07/25 00:04:37;;;;;;;13.07;10.93;;;;;;;21.61;99.71;95794.38;4995804;28;20197;-64
2021/07/25 00:07:04;;;;;;;11.27;10.23;;;;;;;21.86;99.05;95791.81;4979842;28;20184;-62
2021/07/25 00:09:29;;;;;;;11.60;10.50;;;;;;;22.06;98.16;95777.06;4976620;28;20260;-66
2021/07/25 00:11:54;;;;;;;14.67;11.33;;;;;;;22.22;97.32;95757.56;4985728;28;20546;-64
2021/07/25 00:14:20;;;;;;;11.27;10.17;;;;;;;22.40;96.56;95761.03;4995653;28;20198;-62
2021/07/25 00:16:45;;;;;;;11.20;10.20;;;;;;;22.42;96.66;95754.28;4996086;28;20688;-62
2021/07/25 00:19:12;;;;;;;15.50;13.90;;;;;;;22.42;96.98;95753.47;4996051;28;20182;-65
2021/07/25 00:21:38;;;;;;;13.20;11.90;;;;;;;22.56;96.12;95734.63;4995667;28;20679;-62
2021/07/25 00:24:04;;;;;;;12.63;11.43;;;;;;;22.66;95.96;95726.25;4995048;28;20444;-66
2021/07/25 00:26:37;;;;;;;12.93;11.73;;;;;;;22.66;95.77;95731.59;4976532;28;20955;-62
2021/07/25 00:29:02;;;;;;;12.63;10.90;;;;;;;22.59;95.89;95737.44;4984138;28;20185;-62
2021/07/25 00:31:29;;;;;;;13.37;12.00;;;;;;;22.61;95.42;95753.19;4976234;28;20425;-64
2021/07/25 00:33:55;;;;;;;13.10;11.80;;;;;;;22.50;95.55;95758.06;4976007;28;20190;-65
2021/07/25 00:36:21;;;;;;;13.83;11.13;;;;;;;22.42;95.36;95756.94;4976231;28;20417;-65
2021/07/25 00:38:46;;;;;;;12.80;11.60;;;;;;;22.36;95.48;95762.75;4976312;28;20434;-62
2021/07/25 00:41:13;;;;;;;12.30;11.00;;;;;;;22.36;95.72;95760.09;4976546;28;20646;-62
2021/07/25 00:43:40;;;;;;;11.60;10.50;;;;;;;22.34;95.93;95768.44;4983576;28;20181;-64
2021/07/25 00:46:06;;;;;;;12.37;11.20;;;;;;;22.31;95.79;95773.63;4985051;28;20491;-64
2021/07/25 00:48:34;;;;;;;12.00;10.80;;;;;;;22.13;96.33;95778.19;4976017;28;20846;-65
2021/07/25 00:51:00;;;;;;;11.43;10.40;;;;;;;21.99;96.78;95774.06;4975930;28;20188;-65
2021/07/25 00:53:26;;;;;;;12.23;10.50;;;;;;;21.88;97.59;95775.44;4975305;28;20962;-64
2021/07/25 00:55:52;;;;;;;13.30;12.00;;;;;;;21.83;97.90;95779.03;4975820;28;20257;-65
2021/07/25 00:58:18;;;;;;;13.17;11.00;;;;;;;21.72;98.28;95760.91;4986412;28;20424;-65
2021/07/25 01:00:44;;;;;;;12.13;10.93;;;;;;;21.85;97.85;95758.13;4988719;28;20547;-62
2021/07/25 01:03:18;;;;;;;12.23;10.87;;;;;;;21.81;98.16;95751.03;4975504;28;20171;-62
2021/07/25 01:05:54;;;;;;;12.13;11.00;;;;;;;21.71;98.40;95738.72;4975457;28;20433;-63
2021/07/25 01:08:57;;;;;;;13.77;12.43;;;;;;;21.91;97.30;95722.09;4975713;28;20397;-63
2021/07/25 01:11:30;;;;;;;14.67;13.27;;;;;;;22.03;97.12;95710.78;4978858;28;20405;-62
2021/07/25 01:13:59;;;;;;;14.23;12.73;;;;;;;22.18;96.61;95713.78;5013464;28;20442;-63
2021/07/25 01:16:25;;;;;;;13.30;12.03;;;;;;;22.23;96.61;95708.25;4999697;28;20428;-63
2021/07/25 01:18:50;;;;;;;13.83;12.40;;;;;;;22.26;96.78;95699.63;4994771;28;20412;-64
2021/07/25 01:21:18;;;;;;;12.53;11.07;;;;;;;22.22;97.10;95690.66;4994789;28;20632;-62
2021/07/25 01:23:45;;;;;;;12.40;10.43;;;;;;;22.22;97.16;95692.53;4994342;28;20172;-63
2021/07/25 01:26:13;;;;;;;11.90;10.83;;;;;;;22.09;97.09;95712.19;4994780;28;20409;-62
2021/07/25 01:28:46;;;;;;;12.67;11.33;;;;;;;21.95;97.67;95703.53;4981759;28;20431;-66
2021/07/25 01:31:23;;;;;;;11.67;10.47;;;;;;;22.00;97.35;95706.84;4975395;28;20417;-65
2021/07/25 01:33:51;;;;;;;12.07;10.10;;;;;;;21.62;98.23;95715.69;4974899;28;20437;-63
2021/07/25 01:36:17;;;;;;;11.27;10.07;;;;;;;20.94;100.00;95716.22;4975255;28;20404;-66
2021/07/25 01:38:43;;;;;;;12.13;10.43;;;;;;;20.77;100.00;95724.91;4975036;28;20410;-62
2021/07/25 01:41:13;;;;;;;12.30;11.00;;;;;;;20.75;100.00;95732.44;4973850;28;20827;-62
2021/07/25 01:43:40;;;;;;;12.03;10.63;;;;;;;20.84;100.00;95721.78;4984440;28;20229;-65
2021/07/25 01:46:06;;;;;;;12.30;11.07;;;;;;;21.00;100.00;95713.13;4974878;28;20499;-65
2021/07/25 01:48:33;;;;;;;13.30;12.00;;;;;;;21.12;100.00;95697.31;4974899;28;20533;-66
2021/07/25 01:50:58;;;;;;;14.87;13.37;;;;;;;21.39;100.00;95686.41;4973670;28;20425;-65
2021/07/25 01:53:23;;;;;;;14.10;12.80;;;;;;;21.62;99.67;95697.78;4974539;28;20544;-62
2021/07/25 01:55:49;;;;;;;14.13;12.80;;;;;;;21.41;99.77;95712.81;4974741;28;20199;-66
2021/07/25 01:58:14;;;;;;;18.30;15.57;;;;;;;21.16;100.00;95729.56;4975803;28;20174;-62
2021/07/25 02:00:40;;;;;;;16.00;14.40;;;;;;;20.93;100.00;95742.13;4974791;28;20248;-62
2021/07/25 02:03:05;;;;;;;16.17;13.63;;;;;;;20.58;100.00;95743.03;4974581;28;20233;-65
2021/07/25 02:05:31;;;;;;;15.17;13.67;;;;;;;20.37;100.00;95750.69;4974666;28;20182;-61
2021/07/25 02:07:56;;;;;;;14.93;12.50;;;;;;;20.19;100.00;95757.00;4974903;28;20258;-64
2021/07/25 02:10:21;;;;;;;13.30;11.80;;;;;;;20.07;100.00;95748.69;4974605;28;20210;-64
2021/07/25 02:12:48;;;;;;;11.87;10.67;;;;;;;20.28;100.00;95757.06;4985206;28;20197;-63
2021/07/25 02:15:13;;;;;;;13.03;11.70;;;;;;;20.69;100.00;95738.22;4994023;28;20196;-65
2021/07/25 02:17:39;;;;;;;11.17;10.07;;;;;;;20.59;100.00;95730.44;4993953;28;20413;-65
2021/07/25 02:20:06;;;;;;;15.70;10.70;;;;;;;20.47;100.00;95723.00;4993979;28;20179;-65
2021/07/25 02:22:31;;;;;;;13.03;10.60;;;;;;;20.52;100.00;95730.88;4993986;28;20457;-61
2021/07/25 02:24:56;;;;;;;12.23;9.70;;;;;;;20.60;100.00;95716.78;4995752;28;20432;-62
2021/07/25 02:27:22;;;;;;;11.53;10.43;;;;;;;20.74;100.00;95725.53;4986590;28;20663;-65
2021/07/25 02:29:47;;;;;;;10.77;9.53;;;;;;;20.63;100.00;95718.06;4978589;28;20174;-61
2021/07/25 02:32:14;;;;;;;11.00;9.13;;;;;;;20.76;100.00;95710.00;4978404;28;20190;-66
2021/07/25 02:34:40;;;;;;;10.07;9.07;;;;;;;20.62;100.00;95727.19;4977973;28;20181;-62
2021/07/25 02:37:10;;;;;;;10.60;9.60;;;;;;;20.67;100.00;95719.84;4978394;28;20926;-62
2021/07/25 02:39:35;;;;;;;12.73;9.67;;;;;;;20.65;100.00;95723.88;4978407;28;20873;-61
2021/07/25 02:42:00;;;;;;;9.40;8.50;;;;;;;20.73;100.00;95736.50;4980625;28;20486;-62
2021/07/25 02:44:26;;;;;;;9.60;8.63;;;;;;;20.61;100.00;95745.06;4977364;28;20202;-65
2021/07/25 02:46:51;;;;;;;11.00;7.77;;;;;;;20.43;100.00;95746.84;4978070;28;20261;-65
2021/07/25 02:49:17;;;;;;;10.77;8.13;;;;;;;20.40;100.00;95751.97;4978130;28;20228;-62
2021/07/25 02:51:42;;;;;;;8.43;7.63;;;;;;;20.54;100.00;95746.59;4978069;28;20175;-62
2021/07/25 02:54:07;;;;;;;9.37;7.73;;;;;;;20.53;100.00;95750.34;4977643;28;20193;-66
2021/07/25 02:56:33;;;;;;;8.20;7.50;;;;;;;20.63;100.00;95745.56;4986703;28;20177;-61
2021/07/25 02:58:58;;;;;;;8.70;7.40;;;;;;;20.65;100.00;95748.72;4997444;28;20176;-66
2021/07/25 03:01:23;;;;;;;10.40;8.83;;;;;;;20.99;100.00;95746.28;4997715;28;20176;-66
2021/07/25 03:03:49;;;;;;;9.20;8.30;;;;;;;21.22;100.00;95752.38;4997015;28;20189;-62
2021/07/25 03:06:14;;;;;;;9.13;8.33;;;;;;;21.34;99.97;95757.94;4996188;28;20173;-62
2021/07/25 03:08:40;;;;;;;11.20;8.00;;;;;;;21.42;99.67;95755.28;4997233;28;20192;-65
2021/07/25 03:11:07;;;;;;;11.73;8.40;;;;;;;21.54;98.76;95762.75;4990031;28;20645;-62
2021/07/25 03:13:32;;;;;;;9.17;8.10;;;;;;;21.61;98.51;95757.72;5015455;28;20200;-62
2021/07/25 03:16:05;;;;;;;8.23;7.50;;;;;;;21.59;98.22;95757.25;5016846;28;20412;-65
2021/07/25 03:18:31;;;;;;;10.23;7.90;;;;;;;21.57;98.23;95756.75;5016619;28;20165;-61
2021/07/25 03:20:57;;;;;;;8.80;8.07;;;;;;;21.66;98.04;95754.91;5016816;28;20412;-62
2021/07/25 03:23:22;;;;;;;10.80;7.87;;;;;;;21.69;98.21;95748.94;5016353;28;20415;-65
2021/07/25 03:25:48;;;;;;;8.90;8.00;;;;;;;21.62;97.41;95740.56;5008635;28;20204;-65
2021/07/25 03:28:13;;;;;;;9.60;8.00;;;;;;;21.43;96.78;95746.16;4996923;28;20640;-61
2021/07/25 03:30:39;;;;;;;10.50;8.27;;;;;;;21.44;96.36;95747.75;4996893;28;20256;-66
2021/07/25 03:33:04;;;;;;;8.10;7.40;;;;;;;21.54;95.75;95757.41;4996446;28;20193;-66
2021/07/25 03:35:30;;;;;;;8.00;7.30;;;;;;;21.62;95.08;95756.63;4977972;28;20206;-66
2021/07/25 03:37:55;;;;;;;12.97;8.20;;;;;;;21.64;95.13;95749.06;4977078;28;20171;-66
2021/07/25 03:40:24;;;;;;;8.70;7.93;;;;;;;21.63;94.96;95758.22;4977268;28;20177;-66
2021/07/25 03:42:50;;;;;;;9.37;8.57;;;;;;;21.62;95.15;95769.19;4976803;28;20171;-66
2021/07/25 03:45:16;;;;;;;10.43;9.43;;;;;;;21.57;95.99;95772.81;4976982;28;20436;-66
2021/07/25 03:47:41;;;;;;;11.93;10.77;;;;;;;21.54;96.07;95772.66;4977325;28;20397;-61
2021/07/25 03:50:07;;;;;;;12.83;11.50;;;;;;;21.56;96.21;95775.81;4992664;28;20186;-61
2021/07/25 03:52:37;;;;;;;14.90;11.20;;;;;;;21.54;96.41;95769.97;4996303;28;20193;-63
2021/07/25 03:55:04;;;;;;;13.70;12.17;;;;;;;21.58;96.51;95774.38;4996434;28;20217;-67
2021/07/25 03:57:31;;;;;;;12.80;11.37;;;;;;;21.29;97.50;95768.75;4996411;28;20409;-65
2021/07/25 03:59:57;;;;;;;11.53;10.23;;;;;;;21.13;98.60;95764.91;4996515;28;20416;-62
2021/07/25 04:02:22;;;;;;;10.90;8.43;;;;;;;20.87;99.08;95764.72;4996291;28;20500;-66
2021/07/25 04:04:47;;;;;;;9.00;6.63;;;;;;;20.75;98.49;95772.50;4994152;28;20229;-65
2021/07/25 04:07:13;;;;;;;8.33;7.57;;;;;;;20.75;99.50;95761.00;4996176;28;20180;-66
2021/07/25 04:09:38;;;;;;;7.80;7.07;;;;;;;20.86;98.28;95765.81;4996198;28;20604;-66
2021/07/25 04:12:04;;;;;;;7.83;7.03;;;;;;;20.82;97.74;95764.84;4996201;28;20244;-66
2021/07/25 04:14:29;;;;;;;7.40;6.70;;;;;;;20.86;98.07;95773.81;4995704;28;20193;-65
2021/07/25 04:16:54;;;;;;;7.63;6.87;;;;;;;21.02;97.42;95761.69;4996167;28;20173;-66
2021/07/25 04:19:20;;;;;;;9.03;7.00;;;;;;;20.84;97.86;95764.53;4995935;28;20172;-66
2021/07/25 04:21:45;;;;;;;6.93;6.33;;;;;;;20.83;98.54;95768.31;4995869;28;20580;-62
2021/07/25 04:24:10;;;;;;;7.13;6.33;;;;;;;20.55;99.80;95767.63;4982964;28;20197;-66
2021/07/25 04:26:36;;;;;;;8.20;7.30;;;;;;;20.72;99.21;95761.63;4976434;28;20616;-66
2021/07/25 04:29:02;;;;;;;7.97;7.17;;;;;;;20.63;99.71;95766.13;4976416;28;20198;-62
2021/07/25 04:31:27;;;;;;;7.37;6.67;;;;;;;20.56;99.75;95763.88;4979086;28;20556;-62
2021/07/25 04:33:54;;;;;;;7.47;6.73;;;;;;;20.60;100.00;95769.41;4995348;28;20205;-62
2021/07/25 04:36:27;;;;;;;8.17;6.90;;;;;;;20.67;100.00;95775.13;4995827;28;20193;-62
2021/07/25 04:38:57;;;;;;;7.60;6.83;;;;;;;20.80;100.00;95779.63;4995573;28;20420;-65
2021/07/25 04:41:28;;;;;;;10.30;6.80;;;;;;;20.93;99.25;95784.06;4995744;28;20404;-65
2021/07/25 04:44:16;;;;;;;8.77;7.00;;;;;;;20.88;99.16;95781.53;4982998;28;20924;-65
2021/07/25 04:46:52;;;;;;;7.07;6.50;;;;;;;20.63;100.00;95784.81;4975813;28;20429;-65
2021/07/25 04:49:19;;;;;;;6.63;6.13;;;;;;;20.74;99.95;95784.28;4975317;28;20405;-65
2021/07/25 04:51:46;;;;;;;7.27;6.67;;;;;;;20.79;99.63;95778.03;4974554;28;20938;-65
2021/07/25 04:54:16;;;;;;;9.43;6.30;;;;;;;20.73;100.00;95787.22;4975458;28;20422;-66
2021/07/25 04:56:56;;;;;;;7.67;6.90;;;;;;;20.78;100.00;95793.25;4975897;28;20437;-62
2021/07/25 04:59:26;;;;;;;9.00;6.50;;;;;;;20.24;100.00;95794.22;4991950;28;20784;-62
2021/07/25 05:01:54;;;;;;;7.67;6.87;;;;;;;20.29;100.00;95796.00;4995133;28;20767;-61
2021/07/25 05:04:21;;;;;;;7.40;6.70;;;;;;;20.28;100.00;95797.09;4994711;28;20907;-65
2021/07/25 05:06:46;;;;;;;7.00;6.30;;;;;;;20.10;100.00;95796.13;4995213;28;20401;-65
2021/07/25 05:09:12;;;;;;;7.00;6.40;;;;;;;20.25;100.00;95798.50;4995252;28;20578;-66
2021/07/25 05:11:45;;;;;;;8.03;6.70;;;;;;;20.29;100.00;95796.78;4998554;28;20262;-65
2021/07/25 05:14:19;;;;;;;7.10;6.50;;;;;;;20.25;100.00;95806.50;4994748;28;20266;-62
2021/07/25 05:16:55;;;;;;;7.63;6.90;;;;;;;20.44;100.00;95801.00;4995030;28;20436;-66
2021/07/25 05:19:20;;;;;;;7.57;6.93;;;;;;;20.56;100.00;95805.81;4994882;28;20416;-66
2021/07/25 05:21:56;;;;;;;6.93;6.00;;;;;;;20.53;100.00;95812.53;4994783;28;20495;-61
2021/07/25 05:24:23;;;;;;;7.23;6.63;;;;;;;20.36;100.00;95802.50;4994350;28;20200;-65
2021/07/25 05:26:48;;;;;;;6.70;6.10;;;;;;;20.06;100.00;95819.13;4993521;28;20437;-61
2021/07/25 05:29:18;;;;;;;6.03;5.53;;;;;;;20.36;100.00;95804.41;4975229;28;20489;-65
2021/07/25 05:31:44;;;;;;;6.60;5.90;;;;;;;20.29;100.00;95804.03;4975249;28;20171;-60
2021/07/25 05:34:10;;;;;;;6.63;6.13;;;;;;;20.23;100.00;95816.69;4974773;28;20533;-65
2021/07/25 05:36:35;;;;;;;6.13;5.53;;;;;;;20.42;100.00;95809.31;4975279;28;20185;-62
2021/07/25 05:39:01;;;;;;;5.93;5.50;;;;;;;20.27;100.00;95809.63;4979832;28;20177;-65
2021/07/25 05:41:26;;;;;;;7.67;5.93;;;;;;;20.26;100.00;95810.72;4994582;28;20177;-65
2021/07/25 05:43:52;;;;;;;6.10;5.57;;;;;;;20.46;100.00;95806.81;4994197;28;20211;-61
2021/07/25 05:46:17;;;;;;;6.80;6.30;;;;;;;20.30;100.00;95808.25;4994211;28;20181;-62
2021/07/25 05:48:43;;;;;;;6.50;5.93;;;;;;;20.36;100.00;95812.41;4994533;28;20219;-65
2021/07/25 05:51:08;;;;;;;7.80;5.93;;;;;;;20.49;100.00;95807.00;4994301;28;20177;-65
2021/07/25 05:53:34;;;;;;;6.57;5.97;;;;;;;20.65;100.00;95810.13;4993171;28;20228;-62
2021/07/25 05:55:59;;;;;;;6.30;5.80;;;;;;;20.88;100.00;95810.91;4993011;28;20319;-65
2021/07/25 05:58:24;;;;;;;6.63;6.00;;;;;;;20.94;100.00;95799.03;4994156;28;20173;-63
2021/07/25 06:00:52;;;;;;;5.90;5.37;;;;;;;21.05;98.78;95805.72;4994191;28;20184;-60
2021/07/25 06:03:17;;;;;;;6.83;6.13;;;;;;;21.25;98.53;95808.66;4993810;28;20166;-65
2021/07/25 06:05:42;;;;;;;6.23;5.70;;;;;;;21.06;99.13;95808.09;4993908;28;20459;-64
2021/07/25 06:08:08;;;;;;;6.67;6.07;;;;;;;20.75;100.00;95812.56;4993216;28;20212;-61
2021/07/25 06:10:39;;;;;;;6.13;5.70;;;;;;;20.75;100.00;95811.75;4981308;28;20260;-65
2021/07/25 06:13:05;;;;;;;6.30;5.73;;;;;;;20.84;100.00;95815.28;4989311;28;20843;-65
2021/07/25 06:15:32;;;;;;;5.70;5.23;;;;;;;20.69;100.00;95818.34;4994060;28;20455;-61
2021/07/25 06:18:01;;;;;;;5.87;5.30;;;;;;;20.79;100.00;95815.41;4993906;28;20405;-65
2021/07/25 06:20:28;;;;;;;8.90;5.43;;;;;;;20.87;100.00;95820.03;4993868;28;20416;-62
2021/07/25 06:22:55;;;;;;;5.43;5.03;;;;;;;20.90;100.00;95817.53;4993527;28;20405;-61
2021/07/25 06:25:26;;;;;;;5.70;4.63;;;;;;;20.61;100.00;95819.03;4992563;28;20463;-61
2021/07/25 06:27:54;;;;;;;6.00;5.37;;;;;;;20.90;100.00;95822.09;4979199;28;20456;-65
2021/07/25 06:30:21;;;;;;;5.67;5.17;;;;;;;21.10;100.00;95814.41;4984919;28;20439;-66
2021/07/25 06:32:57;;;;;;;6.00;5.53;;;;;;;21.36;98.50;95820.69;4993557;28;20462;-65
2021/07/25 06:35:23;;;;;;;5.30;4.80;;;;;;;21.20;97.22;95821.38;4993809;28;20507;-66
2021/07/25 06:37:49;;;;;;;5.10;4.70;;;;;;;21.27;97.82;95811.81;4994029;28;20420;-62
2021/07/25 06:40:15;;;;;;;5.57;5.17;;;;;;;21.59;97.32;95813.41;4993775;28;20490;-65
2021/07/25 06:42:41;;;;;;;5.97;5.40;;;;;;;21.61;97.11;95811.22;4993493;28;20172;-65
2021/07/25 06:45:06;;;;;;;5.33;4.60;;;;;;;21.90;96.35;95814.19;4982621;28;20201;-65
2021/07/25 06:47:32;;;;;;;5.97;5.00;;;;;;;22.10;94.40;95804.78;4976540;28;20426;-63
2021/07/25 06:49:57;;;;;;;5.87;5.37;;;;;;;22.08;94.02;95807.78;4993762;28;20537;-65
2021/07/25 06:52:22;;;;;;;5.60;5.10;;;;;;;22.09;94.38;95806.66;4993558;28;20694;-65
2021/07/25 06:54:48;;;;;;;5.60;5.20;;;;;;;22.17;92.96;95799.75;4993358;28;20571;-61
2021/07/25 06:57:13;;;;;;;6.83;5.10;;;;;;;22.27;92.68;95802.94;4993902;28;20180;-65
2021/07/25 06:59:38;;;;;;;5.20;4.80;;;;;;;22.50;92.16;95799.00;4989043;28;20231;-61
2021/07/25 07:02:04;;;;;;;6.03;5.40;;;;;;;22.48;92.49;95803.13;4985835;28;20656;-62
2021/07/25 07:04:29;;;;;;;5.97;5.47;;;;;;;22.62;92.97;95797.63;4973815;28;20229;-65
2021/07/25 07:06:55;;;;;;;5.63;5.10;;;;;;;22.69;92.80;95801.41;4974533;28;20579;-62
2021/07/25 07:09:20;;;;;;;6.53;5.33;;;;;;;22.58;91.48;95796.66;4974080;28;20189;-65
2021/07/25 07:11:45;;;;;;;6.73;6.23;;;;;;;22.51;91.42;95786.41;4985262;28;20180;-62
2021/07/25 07:14:11;;;;;;;6.00;5.03;;;;;;;22.83;88.62;95785.94;5016403;28;20192;-61
2021/07/25 07:16:36;;;;;;;4.97;4.57;;;;;;;22.99;88.31;95786.25;5010423;28;20591;-63
2021/07/25 07:19:02;;;;;;;7.10;5.73;;;;;;;23.05;88.75;95793.81;4997110;28;20173;-64
2021/07/25 07:21:27;;;;;;;5.43;4.80;;;;;;;23.27;89.15;95788.25;4997112;28;20517;-65
2021/07/25 07:23:53;;;;;;;5.50;5.00;;;;;;;23.31;87.75;95783.84;4996948;28;20195;-62
2021/07/25 07:26:18;;;;;;;5.03;4.63;;;;;;;23.53;86.64;95782.81;4997034;28;20186;-65
2021/07/25 07:28:43;;;;;;;4.97;4.57;;;;;;;23.62;87.61;95788.16;4992428;28;20549;-60
2021/07/25 07:31:09;;;;;;;6.27;5.70;;;;;;;23.69;87.25;95783.06;4977484;28;20178;-65
2021/07/25 07:33:34;;;;;;;5.47;4.97;;;;;;;23.80;86.62;95789.66;4976898;28;20257;-62
2021/07/25 07:35:59;;;;;;;5.33;4.83;;;;;;;23.84;85.96;95796.75;4977344;28;20681;-61
2021/07/25 07:38:25;;;;;;;5.50;5.10;;;;;;;23.84;84.23;95795.94;4977286;28;20639;-62
2021/07/25 07:40:50;;;;;;;5.30;4.90;;;;;;;23.85;84.49;95795.63;4977346;28;20174;-63
2021/07/25 07:43:18;;;;;;;5.87;5.37;;;;;;;23.89;85.38;95796.56;4979240;28;20181;-63
2021/07/25 07:45:44;;;;;;;6.73;5.00;;;;;;;23.92;85.71;95789.72;4996507;28;20201;-61
2021/07/25 07:48:10;;;;;;;5.30;4.90;;;;;;;23.94;84.00;95788.31;4996595;28;20416;-61
2021/07/25 07:50:36;;;;;;;5.47;4.60;;;;;;;23.51;82.36;95786.94;4996719;28;20413;-61
2021/07/25 07:53:01;;;;;;;6.27;5.67;;;;;;;23.45;85.99;95783.63;4994885;28;20289;-61
2021/07/25 07:55:27;;;;;;;5.87;5.33;;;;;;;23.08;84.28;95777.06;4996416;28;21058;-61
2021/07/25 07:57:53;;;;;;;5.63;5.13;;;;;;;23.38;83.43;95776.09;4994762;28;20260;-61
2021/07/25 08:00:18;;;;;;;5.00;4.60;;;;;;;23.50;84.21;95777.31;4982501;28;20220;-62
2021/07/25 08:02:44;;;;;;;5.00;4.50;;;;;;;23.65;82.28;95782.91;4989491;28;20178;-65
2021/07/25 08:05:10;;;;;;;5.70;5.13;;;;;;;23.85;83.32;95778.72;4996160;28;20200;-62
2021/07/25 08:07:37;;;;;;;5.30;4.80;;;;;;;23.84;81.66;95786.00;4980964;28;20182;-61
2021/07/25 08:10:03;;;;;;;5.97;5.50;;;;;;;23.74;81.08;95789.03;4976767;28;20500;-62
2021/07/25 08:12:29;;;;;;;5.60;5.10;;;;;;;23.51;83.26;95787.72;4997676;28;20546;-67
2021/07/25 08:14:54;;;;;;;5.33;4.93;;;;;;;23.59;85.21;95799.53;5015286;28;20847;-67
2021/07/25 08:17:19;;;;;;;5.23;4.73;;;;;;;23.77;82.02;95798.34;5015621;28;20227;-66
2021/07/25 08:19:45;;;;;;;5.00;4.50;;;;;;;23.76;81.00;95802.13;5015664;28;20236;-66
2021/07/25 08:22:10;;;;;;;6.20;5.03;;;;;;;23.81;81.63;95802.75;4991707;28;20173;-66
2021/07/25 08:24:38;;;;;;;5.53;5.10;;;;;;;23.95;81.62;95797.16;4976037;28;20190;-61
2021/07/25 08:27:05;;;;;;;5.67;5.20;;;;;;;23.96;81.52;95804.09;4975221;28;20174;-66
2021/07/25 08:29:31;;;;;;;5.63;5.10;;;;;;;23.82;80.36;95803.53;4976289;28;20504;-66
2021/07/25 08:31:58;;;;;;;4.83;4.43;;;;;;;23.73;79.12;95797.41;4976212;28;20453;-66
2021/07/25 08:34:24;;;;;;;5.23;4.83;;;;;;;23.74;80.56;95797.09;4976023;28;20224;-62
2021/07/25 08:36:50;;;;;;;6.60;4.30;;;;;;;23.28;80.98;95802.44;4983484;28;20781;-63
2021/07/25 08:39:15;;;;;;;4.80;4.40;;;;;;;23.35;80.75;95798.16;4977229;28;20432;-65
2021/07/25 08:41:56;;;;;;;5.43;5.00;;;;;;;23.21;81.17;95804.78;4976203;28;20166;-66
2021/07/25 08:44:45;;;;;;;5.73;4.97;;;;;;;23.16;81.74;95813.81;4974508;28;20197;-66
2021/07/25 08:47:25;;;;;;;5.03;4.40;;;;;;;23.15;81.82;95811.47;4976147;28;20410;-65
2021/07/25 08:50:06;;;;;;;5.13;4.63;;;;;;;22.93;83.73;95808.97;4975963;28;20754;-65
2021/07/25 08:52:34;;;;;;;6.03;4.40;;;;;;;23.04;83.29;95804.84;4976167;28;20453;-66
2021/07/25 08:55:02;;;;;;;5.10;4.70;;;;;;;23.26;84.03;95812.69;4975610;28;20428;-66
2021/07/25 08:57:30;;;;;;;5.17;4.77;;;;;;;23.34;83.84;95817.25;4975884;28;20938;-65
2021/07/25 08:59:56;;;;;;;4.90;4.53;;;;;;;23.37;82.69;95819.34;4992197;28;20452;-65
2021/07/25 09:02:32;;;;;;;7.37;6.43;;;;;;;23.46;83.42;95817.41;4983854;28;20931;-64
2021/07/25 09:04:58;;;;;;;8.10;6.60;;;;;;;23.39;82.66;95811.72;4978890;28;20526;-65
2021/07/25 09:07:26;;;;;;;6.80;6.20;;;;;;;23.44;81.98;95819.63;4995177;28;20393;-64
2021/07/25 09:10:07;;;;;;;41.33;28.27;;;;;;;23.41;82.36;95810.31;4993685;28;20793;-65
2021/07/25 09:12:33;;;;;;;33.53;24.67;;;;;;;23.53;82.91;95811.53;5006157;28;20455;-64
2021/07/25 09:15:02;;;;;;;22.50;17.60;;;;;;;23.39;84.49;95806.34;5012894;28;20436;-65
2021/07/25 09:17:28;;;;;;;14.37;12.83;;;;;;;23.58;85.47;95814.84;5004087;28;20827;-65
2021/07/25 09:20:14;;;;;;;8.97;8.07;;;;;;;23.54;82.33;95800.47;4994900;28;20492;-64
2021/07/25 09:23:00;;;;;;;7.33;6.73;;;;;;;23.51;79.79;95805.69;4994492;28;20241;-65
2021/07/25 09:25:25;;;;;;;7.53;6.57;;;;;;;23.64;80.83;95805.50;4994624;28;20523;-64
2021/07/25 09:27:56;;;;;;;9.50;7.80;;;;;;;23.81;81.13;95801.94;4994595;28;20497;-65
2021/07/25 09:30:23;;;;;;;31.83;25.03;;;;;;;23.74;80.28;95805.13;4985126;28;20551;-64
2021/07/25 09:32:49;;;;;;;23.67;20.20;;;;;;;23.81;79.26;95823.41;4974829;28;20457;-65
2021/07/25 09:35:32;;;;;;;24.87;17.87;;;;;;;23.65;78.90;95833.91;4974536;28;20429;-64
2021/07/25 09:38:03;;;;;;;14.00;12.50;;;;;;;23.73;80.80;95837.66;4975128;28;20264;-64
2021/07/25 09:40:32;;;;;;;8.93;8.03;;;;;;;23.60;80.68;95839.44;4975035;28;20916;-64
2021/07/25 09:43:08;;;;;;;7.50;6.83;;;;;;;23.67;80.55;95842.44;4973469;28;20418;-65
2021/07/25 09:45:54;;;;;;;7.23;6.53;;;;;;;23.53;83.43;95846.41;4987190;28;20452;-64
2021/07/25 09:48:33;;;;;;;7.73;6.83;;;;;;;23.37;84.95;95849.59;4985959;28;20421;-63
2021/07/25 09:51:19;;;;;;;8.43;7.73;;;;;;;23.46;85.91;95845.00;4977183;28;20821;-64
2021/07/25 09:53:47;;;;;;;9.60;7.17;;;;;;;23.06;88.49;95851.66;4994153;28;20554;-63
2021/07/25 09:56:18;;;;;;;7.70;7.00;;;;;;;23.24;87.59;95858.59;4993962;28;20421;-64
2021/07/25 09:58:44;;;;;;;6.83;6.17;;;;;;;23.11;87.49;95854.19;4976077;28;20425;-64
2021/07/25 10:01:10;;;;;;;6.10;5.60;;;;;;;22.80;87.39;95861.63;4974789;28;20425;-64
2021/07/25 10:03:36;;;;;;;5.97;5.47;;;;;;;22.87;87.11;95856.56;4974496;28;20749;-63
2021/07/25 10:06:22;;;;;;;6.03;5.53;;;;;;;22.71;89.74;95860.03;4974818;28;20537;-63
2021/07/25 10:09:06;;;;;;;6.80;6.20;;;;;;;22.47;91.34;95858.56;4974607;28;20548;-64
2021/07/25 10:11:31;;;;;;;6.17;5.67;;;;;;;22.72;90.53;95851.66;4978851;28;20473;-64
2021/07/25 10:13:57;;;;;;;6.13;5.63;;;;;;;22.48;91.84;95860.13;4977047;28;20955;-64
2021/07/25 10:16:22;;;;;;;7.43;5.77;;;;;;;22.38;91.83;95856.97;4974845;28;20629;-64
2021/07/25 10:18:48;;;;;;;5.63;5.23;;;;;;;22.47;91.81;95857.75;4979127;28;20203;-65
2021/07/25 10:21:15;;;;;;;7.00;5.27;;;;;;;22.64;92.40;95859.72;4990133;28;20659;-65
2021/07/25 10:23:47;;;;;;;6.30;5.80;;;;;;;22.61;91.13;95857.66;4990286;28;20432;-64
2021/07/25 10:26:12;;;;;;;7.30;6.10;;;;;;;22.67;90.65;95845.69;4990507;28;20480;-66
2021/07/25 10:28:40;;;;;;;7.97;6.93;;;;;;;22.67;92.04;95837.63;4990604;28;20440;-65
2021/07/25 10:31:07;;;;;;;6.40;5.80;;;;;;;22.73;90.98;95849.78;4989765;28;20173;-65
2021/07/25 10:33:36;;;;;;;6.50;5.90;;;;;;;22.86;90.63;95846.97;4970169;28;20828;-66
2021/07/25 10:36:03;;;;;;;7.90;7.10;;;;;;;22.87;91.99;95842.38;4971075;28;20769;-63
2021/07/25 10:38:29;;;;;;;6.30;5.80;;;;;;;22.95;91.89;95850.44;4971142;28;20410;-65
2021/07/25 10:40:56;;;;;;;6.27;5.77;;;;;;;22.97;91.37;95848.19;4970952;28;20520;-65
2021/07/25 10:43:26;;;;;;;7.17;6.53;;;;;;;23.02;91.64;95844.59;4970705;28;20509;-65
2021/07/25 10:46:13;;;;;;;6.30;5.80;;;;;;;23.09;90.86;95845.69;4971189;28;20425;-65
2021/07/25 10:48:59;;;;;;;8.30;7.20;;;;;;;23.13;90.87;95849.31;4992114;28;20409;-63
2021/07/25 10:51:25;;;;;;;7.77;6.97;;;;;;;23.19;90.82;95849.94;4989699;28;20427;-64
2021/07/25 10:53:51;;;;;;;7.03;6.33;;;;;;;23.16;90.18;95839.81;4974277;28;20456;-60
2021/07/25 10:56:16;;;;;;;7.23;6.57;;;;;;;23.08;88.79;95849.44;4974153;28;20177;-61
2021/07/25 10:58:54;;;;;;;7.90;6.87;;;;;;;22.99;88.71;95859.41;4974722;28;20176;-63
2021/07/25 11:01:46;;;;;;;7.70;6.90;;;;;;;22.92;89.60;95856.41;4974647;28;20244;-63
2021/07/25 11:04:11;;;;;;;10.47;7.10;;;;;;;22.94;90.56;95856.09;4967660;28;20512;-63
2021/07/25 11:06:38;;;;;;;7.10;6.40;;;;;;;22.96;91.24;95857.34;4976948;28;20417;-62
2021/07/25 11:09:04;;;;;;;8.40;7.73;;;;;;;22.82;91.27;95859.41;4973959;28;20182;-62
2021/07/25 11:11:34;;;;;;;7.80;7.10;;;;;;;22.94;91.09;95854.19;4979622;28;20426;-63
2021/07/25 11:14:02;;;;;;;7.23;6.53;;;;;;;22.87;90.83;95853.88;5012954;28;20690;-64
2021/07/25 11:16:27;;;;;;;7.00;6.37;;;;;;;22.81;90.44;95860.50;5016790;28;20882;-62
2021/07/25 11:18:54;;;;;;;8.67;7.87;;;;;;;22.74;91.10;95860.19;4997613;28;20412;-63
2021/07/25 11:21:39;;;;;;;8.47;7.70;;;;;;;22.57;91.88;95860.19;5021592;28;20639;-62
2021/07/25 11:24:31;;;;;;;8.53;7.30;;;;;;;22.42;94.42;95866.75;4996865;28;20833;-65
2021/07/25 11:26:59;;;;;;;10.97;8.30;;;;;;;22.23;95.15;95868.91;4994409;28;20431;-64
2021/07/25 11:29:33;;;;;;;11.40;9.20;;;;;;;22.39;95.02;95875.38;4997124;28;20488;-63
2021/07/25 11:31:59;;;;;;;9.70;8.20;;;;;;;22.38;95.59;95873.03;4996880;28;20403;-63